createdAt,value
2023-05-08T00:02:15.461Z,99.27
2023-05-08T00:04:43.376Z,99.60
2023-05-08T00:07:11.229Z,99.43
2023-05-08T00:09:40.653Z,99.82
2023-05-08T00:12:08.876Z,100.00
2023-05-08T00:14:36.765Z,100.00
2023-05-08T00:17:04.669Z,100.00
2023-05-08T00:19:32.728Z,100.00
2023-05-08T00:22:00.452Z,100.00
2023-05-08T00:24:28.208Z,100.00
2023-05-08T00:26:57.368Z,100.00
2023-05-08T00:29:25.213Z,100.00
2023-05-08T00:31:53.097Z,100.00
2023-05-08T00:34:20.874Z,100.00
2023-05-08T00:36:48.823Z,100.00
2023-05-08T00:39:16.677Z,100.00
2023-05-08T00:41:44.451Z,100.00
2023-05-08T00:44:13.588Z,100.00
2023-05-08T00:46:45.733Z,100.00
2023-05-08T00:49:14.625Z,100.00
2023-05-08T00:51:43.620Z,100.00
2023-05-08T00:54:12.168Z,100.00
2023-05-08T00:56:40.486Z,100.00
2023-05-08T00:59:12.730Z,100.00
2023-05-08T01:01:45.289Z,100.00
2023-05-08T01:04:13.320Z,100.00
2023-05-08T01:06:43.991Z,100.00
2023-05-08T01:09:12.252Z,100.00
2023-05-08T01:11:48.287Z,100.00
2023-05-08T01:14:21.310Z,100.00
2023-05-08T01:16:59.605Z,100.00
2023-05-08T01:19:55.991Z,100.00
2023-05-08T01:22:45.133Z,100.00
2023-05-08T01:25:36.158Z,100.00
2023-05-08T01:28:22.975Z,100.00
2023-05-08T01:31:18.543Z,100.00
2023-05-08T01:33:55.919Z,100.00
2023-05-08T01:36:30.266Z,100.00
2023-05-08T01:39:18.365Z,100.00
2023-05-08T01:41:55.218Z,100.00
2023-05-08T01:44:30.075Z,100.00
2023-05-08T01:46:59.559Z,100.00
2023-05-08T01:49:35.386Z,100.00
2023-05-08T01:52:08.623Z,100.00
2023-05-08T01:54:44.053Z,100.00
2023-05-08T01:57:13.496Z,100.00
2023-05-08T01:59:44.034Z,100.00
2023-05-08T02:02:13.236Z,100.00
2023-05-08T02:04:44.588Z,100.00
2023-05-08T02:07:12.830Z,100.00
2023-05-08T02:09:45.883Z,100.00
2023-05-08T02:12:15.434Z,100.00
2023-05-08T02:14:44.805Z,100.00
2023-05-08T02:17:15.483Z,100.00
2023-05-08T02:19:45.840Z,100.00
2023-05-08T02:22:16.417Z,100.00
2023-05-08T02:24:46.316Z,100.00
2023-05-08T02:27:16.957Z,100.00
2023-05-08T02:29:44.758Z,100.00
2023-05-08T02:32:13.209Z,100.00
2023-05-08T02:34:51.118Z,100.00
2023-05-08T02:37:29.866Z,100.00
2023-05-08T02:39:59.650Z,100.00
2023-05-08T02:42:27.745Z,100.00
2023-05-08T02:44:55.586Z,100.00
2023-05-08T02:47:27.031Z,100.00
2023-05-08T02:50:01.328Z,100.00
2023-05-08T02:52:33.650Z,100.00
2023-05-08T02:55:06.213Z,100.00
2023-05-08T02:57:42.954Z,100.00
2023-05-08T03:00:18.421Z,100.00
2023-05-08T03:02:57.100Z,100.00
2023-05-08T03:05:30.602Z,100.00
2023-05-08T03:08:06.070Z,100.00
2023-05-08T03:10:37.712Z,100.00
2023-05-08T03:13:09.202Z,100.00
2023-05-08T03:15:43.022Z,100.00
2023-05-08T03:18:12.579Z,100.00
2023-05-08T03:20:44.705Z,100.00
2023-05-08T03:23:16.486Z,100.00
2023-05-08T03:25:44.887Z,100.00
2023-05-08T03:28:14.271Z,100.00
2023-05-08T03:30:43.330Z,100.00
2023-05-08T03:33:13.610Z,100.00
2023-05-08T03:35:41.777Z,100.00
2023-05-08T03:38:09.703Z,100.00
2023-05-08T03:40:39.947Z,100.00
2023-05-08T03:43:08.806Z,100.00
2023-05-08T03:45:37.832Z,100.00
2023-05-08T03:48:06.419Z,100.00
2023-05-08T03:50:36.948Z,100.00
2023-05-08T03:53:05.172Z,100.00
2023-05-08T03:55:33.759Z,100.00
2023-05-08T03:58:08.161Z,100.00
2023-05-08T04:00:47.916Z,100.00
2023-05-08T04:03:23.953Z,100.00
2023-05-08T04:06:00.855Z,100.00
2023-05-08T04:08:30.880Z,100.00
2023-05-08T04:11:07.581Z,100.00
2023-05-08T04:13:44.309Z,100.00
2023-05-08T04:16:18.660Z,100.00
2023-05-08T04:18:49.023Z,100.00
2023-05-08T04:21:21.414Z,100.00
2023-05-08T04:23:51.911Z,100.00
2023-05-08T04:26:20.693Z,100.00
2023-05-08T04:28:50.491Z,100.00
2023-05-08T04:31:19.088Z,100.00
2023-05-08T04:33:47.433Z,100.00
2023-05-08T04:36:15.649Z,100.00
2023-05-08T04:38:43.656Z,100.00
2023-05-08T04:41:11.504Z,100.00
2023-05-08T04:43:39.757Z,100.00
2023-05-08T04:46:09.614Z,100.00
2023-05-08T04:48:37.591Z,100.00
2023-05-08T04:51:05.884Z,100.00
2023-05-08T04:53:33.841Z,100.00
2023-05-08T04:56:01.743Z,100.00
2023-05-08T04:58:29.722Z,100.00
2023-05-08T05:00:57.504Z,100.00
2023-05-08T05:03:26.668Z,100.00
2023-05-08T05:05:59.750Z,100.00
2023-05-08T05:08:27.651Z,100.00
2023-05-08T05:10:55.598Z,100.00
2023-05-08T05:13:23.456Z,100.00
2023-05-08T05:15:54.388Z,100.00
2023-05-08T05:18:22.466Z,100.00
2023-05-08T05:20:51.653Z,100.00
2023-05-08T05:23:19.431Z,100.00
2023-05-08T05:25:47.271Z,100.00
2023-05-08T05:28:15.110Z,100.00
2023-05-08T05:30:43.207Z,100.00
2023-05-08T05:33:11.003Z,100.00
2023-05-08T05:35:38.897Z,100.00
2023-05-08T05:38:08.051Z,100.00
2023-05-08T05:40:35.788Z,100.00
2023-05-08T05:43:03.927Z,100.00
2023-05-08T05:45:33.598Z,100.00
2023-05-08T05:48:01.677Z,100.00
2023-05-08T05:50:29.507Z,100.00
2023-05-08T05:52:57.218Z,100.00
2023-05-08T05:55:26.729Z,100.00
2023-05-08T05:57:57.509Z,100.00
2023-05-08T06:00:25.327Z,100.00
2023-05-08T06:02:53.415Z,100.00
2023-05-08T06:05:21.376Z,100.00
2023-05-08T06:07:49.130Z,100.00
2023-05-08T06:10:16.915Z,100.00
2023-05-08T06:12:46.046Z,100.00
2023-05-08T06:15:15.045Z,100.00
2023-05-08T06:17:43.106Z,100.00
2023-05-08T06:20:11.115Z,100.00
2023-05-08T06:22:40.091Z,100.00
2023-05-08T06:25:09.682Z,100.00
2023-05-08T06:27:37.589Z,100.00
2023-05-08T06:30:10.699Z,100.00
2023-05-08T06:32:41.632Z,100.00
2023-05-08T06:35:10.626Z,100.00
2023-05-08T06:37:38.669Z,100.00
2023-05-08T06:40:12.183Z,100.00
2023-05-08T06:42:41.080Z,100.00
2023-05-08T06:45:11.469Z,100.00
2023-05-08T06:47:39.468Z,100.00
2023-05-08T06:50:08.381Z,100.00
2023-05-08T06:52:36.103Z,100.00
2023-05-08T06:55:03.944Z,100.00
2023-05-08T06:57:31.699Z,100.00
2023-05-08T06:59:59.415Z,100.00
2023-05-08T07:02:28.681Z,100.00
2023-05-08T07:04:56.474Z,100.00
2023-05-08T07:07:24.404Z,100.00
2023-05-08T07:09:52.164Z,100.00
2023-05-08T07:12:20.000Z,100.00
2023-05-08T07:14:47.763Z,100.00
2023-05-08T07:17:15.704Z,100.00
2023-05-08T07:19:44.882Z,100.00
2023-05-08T07:22:12.781Z,100.00
2023-05-08T07:24:40.711Z,100.00
2023-05-08T07:27:08.559Z,100.00
2023-05-08T07:29:36.965Z,100.00
2023-05-08T07:32:08.487Z,100.00
2023-05-08T07:34:36.542Z,100.00
2023-05-08T07:37:05.902Z,100.00
2023-05-08T07:39:33.790Z,100.00
2023-05-08T07:42:01.613Z,100.00
2023-05-08T07:44:31.673Z,100.00
2023-05-08T07:47:03.755Z,100.00
2023-05-08T07:49:31.642Z,100.00
2023-05-08T07:51:59.423Z,100.00
2023-05-08T07:54:28.660Z,100.00
2023-05-08T07:56:56.470Z,100.00
2023-05-08T07:59:24.359Z,100.00
2023-05-08T08:01:52.517Z,100.00
2023-05-08T08:04:20.426Z,100.00
2023-05-08T08:06:48.283Z,100.00
2023-05-08T08:09:16.185Z,100.00
2023-05-08T08:11:45.396Z,100.00
2023-05-08T08:14:13.188Z,100.00
2023-05-08T08:16:40.939Z,99.03
2023-05-08T08:19:08.765Z,100.00
2023-05-08T08:21:36.782Z,100.00
2023-05-08T08:24:04.926Z,99.38
2023-05-08T08:26:32.731Z,99.55
2023-05-08T08:29:02.151Z,99.20
2023-05-08T08:31:29.990Z,98.87
2023-05-08T08:33:57.866Z,98.33
2023-05-08T08:36:27.963Z,96.83
2023-05-08T08:38:55.728Z,97.23
2023-05-08T08:41:23.669Z,96.77
2023-05-08T08:43:51.574Z,95.79
2023-05-08T08:46:24.956Z,96.04
2023-05-08T08:48:55.296Z,95.18
2023-05-08T08:51:28.457Z,94.15
2023-05-08T08:54:04.393Z,94.64
2023-05-08T08:56:33.784Z,94.13
2023-05-08T08:59:02.875Z,93.67
2023-05-08T09:01:36.144Z,90.41
2023-05-08T09:04:04.125Z,92.69
2023-05-08T09:06:35.770Z,92.80
2023-05-08T09:09:04.161Z,92.62
2023-05-08T09:11:32.023Z,91.91
2023-05-08T09:14:00.350Z,91.59
2023-05-08T09:16:29.301Z,91.09
2023-05-08T09:18:58.486Z,89.83
2023-05-08T09:21:26.909Z,89.31
2023-05-08T09:23:58.708Z,88.90
2023-05-08T09:26:32.463Z,88.70
2023-05-08T09:29:18.899Z,87.67
2023-05-08T09:31:49.007Z,86.22
2023-05-08T09:34:27.991Z,86.36
2023-05-08T09:36:56.275Z,86.86
2023-05-08T09:39:25.705Z,85.81
2023-05-08T09:42:00.212Z,85.29
2023-05-08T09:44:28.407Z,84.28
2023-05-08T09:47:12.012Z,83.17
2023-05-08T09:49:41.386Z,82.89
2023-05-08T09:52:09.549Z,82.56
2023-05-08T09:54:37.424Z,82.31
2023-05-08T09:57:13.480Z,80.79
2023-05-08T09:59:41.369Z,81.00
2023-05-08T10:02:16.071Z,81.09
2023-05-08T10:04:45.916Z,80.78
2023-05-08T10:07:13.731Z,76.49
2023-05-08T10:09:50.397Z,78.19
2023-05-08T10:12:19.344Z,78.59
2023-05-08T10:14:47.324Z,77.20
2023-05-08T10:17:20.466Z,77.22
2023-05-08T10:19:51.831Z,77.25
2023-05-08T10:22:21.603Z,76.98
2023-05-08T10:24:54.656Z,76.75
2023-05-08T10:27:31.951Z,77.08
2023-05-08T10:30:04.111Z,76.85
2023-05-08T10:32:40.675Z,76.78
2023-05-08T10:35:13.105Z,76.08
2023-05-08T10:37:42.894Z,76.22
2023-05-08T10:40:12.220Z,73.92
2023-05-08T10:42:41.051Z,75.11
2023-05-08T10:45:10.291Z,75.68
2023-05-08T10:47:49.682Z,76.01
2023-05-08T10:50:38.331Z,76.09
2023-05-08T10:53:09.154Z,75.96
2023-05-08T10:55:38.564Z,73.85
2023-05-08T10:58:10.705Z,73.59
2023-05-08T11:01:12.424Z,73.20
2023-05-08T11:03:42.559Z,71.72
2023-05-08T11:06:12.395Z,73.09
2023-05-08T11:08:51.740Z,72.72
2023-05-08T11:11:27.152Z,70.13
2023-05-08T11:14:00.460Z,71.08
2023-05-08T11:17:05.187Z,71.23
2023-05-08T11:19:33.008Z,70.31
2023-05-08T11:22:16.279Z,67.11
2023-05-08T11:24:50.328Z,68.01
2023-05-08T11:27:18.444Z,68.12
2023-05-08T11:29:46.262Z,67.03
2023-05-08T11:32:14.296Z,65.95
2023-05-08T11:34:49.595Z,65.00
2023-05-08T11:37:24.019Z,68.02
2023-05-08T11:39:52.118Z,69.04
2023-05-08T11:42:36.100Z,69.12
2023-05-08T11:45:06.594Z,67.95
2023-05-08T11:47:39.250Z,67.35
2023-05-08T11:50:09.088Z,67.90
2023-05-08T11:52:39.617Z,66.95
2023-05-08T11:55:09.693Z,66.46
2023-05-08T11:57:37.845Z,64.94
2023-05-08T12:00:06.881Z,63.70
2023-05-08T12:02:39.112Z,63.49
2023-05-08T12:05:08.298Z,62.01
2023-05-08T12:07:46.364Z,61.54
2023-05-08T12:10:15.320Z,61.44
2023-05-08T12:12:45.274Z,63.87
2023-05-08T12:15:15.294Z,64.57
2023-05-08T12:17:43.698Z,63.30
2023-05-08T12:20:14.263Z,63.33
2023-05-08T12:22:44.373Z,62.49
2023-05-08T12:25:13.096Z,61.65
2023-05-08T12:27:43.799Z,61.67
2023-05-08T12:30:14.071Z,61.82
2023-05-08T12:32:43.697Z,60.07
2023-05-08T12:35:12.813Z,63.55
2023-05-08T12:37:41.597Z,63.63
2023-05-08T12:40:26.849Z,64.22
2023-05-08T12:42:54.919Z,64.15
2023-05-08T12:45:24.203Z,64.41
2023-05-08T12:47:53.696Z,63.92
2023-05-08T12:50:22.824Z,64.10
2023-05-08T12:52:51.771Z,63.13
2023-05-08T12:55:29.130Z,61.18
2023-05-08T12:58:05.503Z,63.43
2023-05-08T13:00:38.253Z,63.79
2023-05-08T13:03:07.604Z,63.58
2023-05-08T13:05:36.994Z,61.51
2023-05-08T13:08:06.701Z,61.44
2023-05-08T13:10:49.960Z,62.13
2023-05-08T13:13:22.177Z,61.31
2023-05-08T13:15:51.661Z,61.04
2023-05-08T13:18:21.172Z,60.25
2023-05-08T13:20:49.173Z,62.90
2023-05-08T13:23:16.987Z,63.05
2023-05-08T13:25:44.868Z,62.22
2023-05-08T13:28:13.992Z,60.94
2023-05-08T13:30:41.767Z,60.94
2023-05-08T13:33:09.867Z,60.85
2023-05-08T13:35:37.815Z,59.23
2023-05-08T13:38:06.107Z,59.75
2023-05-08T13:40:34.120Z,59.30
2023-05-08T13:43:02.197Z,59.04
2023-05-08T13:45:32.883Z,58.94
2023-05-08T13:48:01.456Z,58.01
2023-05-08T13:50:29.416Z,57.85
2023-05-08T13:52:57.188Z,58.60
2023-05-08T13:55:25.069Z,58.56
2023-05-08T13:57:52.843Z,58.34
2023-05-08T14:00:21.217Z,59.94
2023-05-08T14:02:53.003Z,59.62
2023-05-08T14:05:21.332Z,60.02
2023-05-08T14:07:49.422Z,59.72
2023-05-08T14:10:18.058Z,59.23
2023-05-08T14:12:46.775Z,59.43
2023-05-08T14:15:14.966Z,60.17
2023-05-08T14:17:43.397Z,60.47
2023-05-08T14:20:13.525Z,60.13
2023-05-08T14:22:41.480Z,59.57
2023-05-08T14:25:10.536Z,60.21
2023-05-08T14:27:38.612Z,59.78
2023-05-08T14:30:08.279Z,60.19
2023-05-08T14:32:36.147Z,60.42
2023-05-08T14:35:03.979Z,60.24
2023-05-08T14:37:33.140Z,59.94
2023-05-08T14:40:00.959Z,59.53
2023-05-08T14:42:28.872Z,59.68
2023-05-08T14:44:57.026Z,60.28
2023-05-08T14:47:24.854Z,60.75
2023-05-08T14:49:53.717Z,62.25
2023-05-08T14:52:21.561Z,62.34
2023-05-08T14:54:53.418Z,62.60
2023-05-08T14:57:21.696Z,61.12
2023-05-08T14:59:55.100Z,62.39
2023-05-08T15:02:23.549Z,63.98
2023-05-08T15:04:51.414Z,63.68
2023-05-08T15:07:19.190Z,64.34
2023-05-08T15:09:47.939Z,63.38
2023-05-08T15:12:17.069Z,62.44
2023-05-08T15:14:44.878Z,61.36
2023-05-08T15:17:12.687Z,60.97
2023-05-08T15:19:40.495Z,61.18
2023-05-08T15:22:08.242Z,62.04
2023-05-08T15:24:36.122Z,62.39
2023-05-08T15:27:03.998Z,62.08
2023-05-08T15:29:33.166Z,60.91
2023-05-08T15:32:01.002Z,62.53
2023-05-08T15:34:32.695Z,61.41
2023-05-08T15:37:00.850Z,61.38
2023-05-08T15:39:28.625Z,61.42
2023-05-08T15:41:56.483Z,61.77
2023-05-08T15:44:26.534Z,63.26
2023-05-08T15:46:58.007Z,63.74
2023-05-08T15:49:27.089Z,63.61
2023-05-08T15:51:55.088Z,63.73
2023-05-08T15:54:22.842Z,63.73
2023-05-08T15:56:50.710Z,61.56
2023-05-08T15:59:18.564Z,62.98
2023-05-08T16:01:46.978Z,61.16
2023-05-08T16:04:16.182Z,63.61
2023-05-08T16:06:43.940Z,64.46
2023-05-08T16:09:11.705Z,64.64
2023-05-08T16:11:39.513Z,62.70
2023-05-08T16:14:07.324Z,66.07
2023-05-08T16:16:35.188Z,66.85
2023-05-08T16:19:03.158Z,66.14
2023-05-08T16:21:32.449Z,65.83
2023-05-08T16:24:00.556Z,65.12
2023-05-08T16:26:28.316Z,64.39
2023-05-08T16:28:56.238Z,66.06
2023-05-08T16:31:24.050Z,66.70
2023-05-08T16:33:51.780Z,66.77
2023-05-08T16:38:48.624Z,65.79
2023-05-08T16:41:16.433Z,65.86
2023-05-08T16:43:44.239Z,65.53
2023-05-08T16:46:12.044Z,67.00
2023-05-08T16:48:39.840Z,67.54
2023-05-08T16:51:08.066Z,67.57
2023-05-08T16:53:35.997Z,67.42
2023-05-08T16:56:05.281Z,67.00
2023-05-08T16:58:33.242Z,65.76
2023-05-08T17:01:01.128Z,66.54
2023-05-08T17:03:29.048Z,66.70
2023-05-08T17:05:56.874Z,66.34
2023-05-08T17:08:24.630Z,65.76
2023-05-08T17:10:54.233Z,65.27
2023-05-08T17:13:23.416Z,65.02
2023-05-08T17:15:51.251Z,64.72
2023-05-08T17:18:19.018Z,64.75
2023-05-08T17:20:46.803Z,64.66
2023-05-08T17:23:14.663Z,65.07
2023-05-08T17:25:42.576Z,65.24
2023-05-08T17:28:10.419Z,65.36
2023-05-08T17:30:39.644Z,65.60
2023-05-08T17:33:07.476Z,65.52
2023-05-08T17:35:35.294Z,65.64
2023-05-08T17:38:03.136Z,66.05
2023-05-08T17:40:31.667Z,66.03
2023-05-08T17:43:00.284Z,66.05
2023-05-08T17:45:28.311Z,66.32
2023-05-08T17:47:57.573Z,66.75
2023-05-08T17:50:25.603Z,66.58
2023-05-08T17:52:53.385Z,66.39
2023-05-08T17:55:21.166Z,66.78
2023-05-08T17:57:52.580Z,67.24
2023-05-08T18:00:20.814Z,67.44
2023-05-08T18:02:48.707Z,67.51
2023-05-08T18:05:17.963Z,67.86
2023-05-08T18:07:45.764Z,67.72
2023-05-08T18:10:13.912Z,67.89
2023-05-08T18:12:41.893Z,67.93
2023-05-08T18:15:10.599Z,67.99
2023-05-08T18:17:38.387Z,68.20
2023-05-08T18:20:07.875Z,68.38
2023-05-08T18:22:37.201Z,68.36
2023-05-08T18:25:05.604Z,68.11
2023-05-08T18:27:36.031Z,69.36
2023-05-08T18:30:04.342Z,69.54
2023-05-08T18:32:32.156Z,69.93
2023-05-08T18:34:59.996Z,70.34
2023-05-08T18:37:28.317Z,70.67
2023-05-08T18:39:57.465Z,70.58
2023-05-08T18:42:25.439Z,70.22
2023-05-08T18:44:53.614Z,70.36
2023-05-08T18:47:21.465Z,70.27
2023-05-08T18:49:51.796Z,70.20
2023-05-08T18:52:19.623Z,70.18
2023-05-08T18:54:47.416Z,70.07
2023-05-08T18:57:16.644Z,70.22
2023-05-08T18:59:47.427Z,70.09
2023-05-08T19:02:15.243Z,70.38
2023-05-08T19:04:43.000Z,70.34
2023-05-08T19:07:10.773Z,70.40
2023-05-08T19:09:38.586Z,70.50
2023-05-08T19:12:06.436Z,70.61
2023-05-08T19:14:35.672Z,70.67
2023-05-08T19:17:03.487Z,70.92
2023-05-08T19:19:31.519Z,71.19
2023-05-08T19:21:59.296Z,71.52
2023-05-08T19:24:29.920Z,71.63
2023-05-08T19:26:58.423Z,72.05
2023-05-08T19:29:26.426Z,71.99
2023-05-08T19:31:56.458Z,72.41
2023-05-08T19:34:24.742Z,72.50
2023-05-08T19:36:52.518Z,72.75
2023-05-08T19:39:20.289Z,72.69
2023-05-08T19:41:48.081Z,72.94
2023-05-08T19:44:15.902Z,73.36
2023-05-08T19:46:43.761Z,73.85
2023-05-08T19:49:17.272Z,74.16
2023-05-08T19:51:45.148Z,74.37
2023-05-08T19:54:13.091Z,74.48
2023-05-08T19:56:40.815Z,74.42
2023-05-08T19:59:08.623Z,74.87
2023-05-08T20:01:36.644Z,74.89
2023-05-08T20:04:04.612Z,75.15
2023-05-08T20:06:33.933Z,74.72
2023-05-08T20:09:01.694Z,75.17
2023-05-08T20:11:29.477Z,74.98
2023-05-08T20:13:57.479Z,75.14
2023-05-08T20:16:26.557Z,75.37
2023-05-08T20:18:54.480Z,75.33
2023-05-08T20:21:22.435Z,75.40
2023-05-08T20:23:51.912Z,75.73
2023-05-08T20:26:19.621Z,75.70
2023-05-08T20:28:47.381Z,75.86
2023-05-08T20:31:15.255Z,75.90
2023-05-08T20:33:43.038Z,76.24
2023-05-08T20:36:10.864Z,76.39
2023-05-08T20:38:38.825Z,76.25
2023-05-08T20:41:08.011Z,76.44
2023-05-08T20:43:35.915Z,76.78
2023-05-08T20:46:05.036Z,77.26
2023-05-08T20:48:32.796Z,77.18
2023-05-08T20:51:00.603Z,77.63
2023-05-08T20:53:28.377Z,77.91
2023-05-08T20:56:01.679Z,77.93
2023-05-08T20:58:31.053Z,78.15
2023-05-08T21:00:59.000Z,78.36
2023-05-08T21:03:26.853Z,78.58
2023-05-08T21:05:55.750Z,78.87
2023-05-08T21:08:24.252Z,79.40
2023-05-08T21:10:52.785Z,79.39
2023-05-08T21:13:20.690Z,79.85
2023-05-08T21:15:51.291Z,79.89
2023-05-08T21:18:19.348Z,80.48
2023-05-08T21:20:50.217Z,80.80
2023-05-08T21:23:18.280Z,81.09
2023-05-08T21:25:47.018Z,81.44
2023-05-08T21:28:15.125Z,81.68
2023-05-08T21:30:42.976Z,81.59
2023-05-08T21:33:13.810Z,81.76
2023-05-08T21:35:42.124Z,81.57
2023-05-08T21:38:12.071Z,81.78
2023-05-08T21:40:39.914Z,81.63
2023-05-08T21:43:07.768Z,81.67
2023-05-08T21:45:35.625Z,81.57
2023-05-08T21:48:03.949Z,81.65
2023-05-08T21:50:33.149Z,81.76
2023-05-08T21:53:00.997Z,81.94
2023-05-08T21:55:30.885Z,81.94
2023-05-08T21:57:59.917Z,82.06
2023-05-08T22:00:27.676Z,81.98
2023-05-08T22:02:55.479Z,82.02
2023-05-08T22:05:24.451Z,82.10
2023-05-08T22:07:53.961Z,82.12
2023-05-08T22:10:22.436Z,82.54
2023-05-08T22:12:50.265Z,83.08
2023-05-08T22:15:29.528Z,83.64
2023-05-08T22:17:58.436Z,83.48
2023-05-08T22:20:26.589Z,84.07
2023-05-08T22:22:55.814Z,84.06
2023-05-08T22:25:25.202Z,84.37
2023-05-08T22:27:53.185Z,84.56
2023-05-08T22:30:21.185Z,84.68
2023-05-08T22:32:55.316Z,84.69
2023-05-08T22:35:24.828Z,84.90
2023-05-08T22:37:53.464Z,85.06
2023-05-08T22:40:23.263Z,85.62
2023-05-08T22:42:53.460Z,85.33
2023-05-08T22:45:21.585Z,85.91
2023-05-08T22:47:49.503Z,86.18
2023-05-08T22:50:17.510Z,86.52
2023-05-08T22:52:45.463Z,86.75
2023-05-08T22:55:15.509Z,87.02
2023-05-08T22:57:44.916Z,87.31
2023-05-08T23:00:16.204Z,87.61
2023-05-08T23:02:44.268Z,87.99
2023-05-08T23:05:12.180Z,88.45
2023-05-08T23:07:40.467Z,88.82
2023-05-08T23:10:09.040Z,89.12
2023-05-08T23:12:37.063Z,89.38
2023-05-08T23:15:07.047Z,89.70
2023-05-08T23:17:34.798Z,89.54
2023-05-08T23:20:02.835Z,90.02
2023-05-08T23:22:30.557Z,89.91
2023-05-08T23:24:58.418Z,90.06
2023-05-08T23:27:26.637Z,90.04
2023-05-08T23:29:54.361Z,90.30
2023-05-08T23:32:23.484Z,90.22
2023-05-08T23:34:51.209Z,90.38
2023-05-08T23:37:19.034Z,90.64
2023-05-08T23:39:46.738Z,90.80
2023-05-08T23:42:14.476Z,90.80
2023-05-08T23:44:42.224Z,90.94
2023-05-08T23:47:09.978Z,90.89
2023-05-08T23:49:39.126Z,90.88
2023-05-08T23:52:07.021Z,90.93
2023-05-08T23:54:34.815Z,90.92
2023-05-08T23:57:02.523Z,91.19
2023-05-08T23:59:30.430Z,91.19
